Terminal Aerodrome Forecast
Issued by NWS

Home | Current Version | Previous Version | Text Only | Print | Product List | Glossary On
Versions: 1 2 3 4 5 6 7 8 9 10 11 12 13 14 15 16 17 18 19 20 21 22 23 24 25 26 27
317
FTAK31 PANC 082339
TAFACD
TAF
PACD 082339Z 0900/0924 32008KT P6SM BKN015
     FM090400 13011KT P6SM VCSH BKN035
     FM091200 11015G25KT P6SM VCSH SCT015 BKN025
     FM092100 11023G35KT P6SM -SHRA SCT015 BKN025=

USA.gov is the U.S. government's official web portal to all federal, state and local government web resources and services.